createdAt,value
2022-09-23T00:01:27.422Z,7.90
2022-09-23T00:04:00.493Z,7.90
2022-09-23T00:06:33.028Z,7.90
2022-09-23T00:09:05.970Z,7.90
2022-09-23T00:11:38.768Z,7.90
2022-09-23T00:14:11.702Z,7.90
2022-09-23T00:16:44.253Z,7.80
2022-09-23T00:19:17.003Z,7.80
2022-09-23T00:21:49.487Z,7.90
2022-09-23T00:24:22.675Z,7.90
2022-09-23T00:26:55.219Z,7.90
2022-09-23T00:29:27.948Z,7.80
2022-09-23T00:32:00.463Z,7.80
2022-09-23T00:34:34.279Z,7.80
2022-09-23T00:37:06.866Z,7.80
2022-09-23T00:39:39.847Z,7.80
2022-09-23T00:42:17.774Z,7.80
2022-09-23T00:44:56.545Z,7.90
2022-09-23T00:47:58.018Z,7.80
2022-09-23T00:50:40.074Z,7.80
2022-09-23T00:53:16.639Z,7.80
2022-09-23T00:56:00.371Z,7.80
2022-09-23T00:58:36.194Z,7.80
2022-09-23T01:01:09.404Z,7.70
2022-09-23T01:03:44.683Z,7.70
2022-09-23T01:06:17.534Z,7.70
2022-09-23T01:08:50.299Z,7.60
2022-09-23T01:11:47.505Z,7.60
2022-09-23T01:14:28.783Z,7.50
2022-09-23T01:17:09.408Z,7.50
2022-09-23T01:20:04.859Z,7.50
2022-09-23T01:23:08.918Z,7.40
2022-09-23T01:25:44.246Z,7.40
2022-09-23T01:29:14.474Z,7.50
2022-09-23T01:31:55.735Z,7.40
2022-09-23T01:34:34.362Z,7.40
2022-09-23T01:37:18.642Z,7.40
2022-09-23T01:39:57.497Z,7.40
2022-09-23T01:42:47.559Z,7.40
2022-09-23T01:45:26.994Z,7.40
2022-09-23T01:48:14.063Z,7.30
2022-09-23T01:51:05.062Z,7.30
2022-09-23T01:53:42.375Z,7.20
2022-09-23T01:56:39.238Z,7.20
2022-09-23T01:59:14.938Z,7.20
2022-09-23T02:02:01.206Z,7.10
2022-09-23T02:04:45.791Z,7.20
2022-09-23T02:07:23.929Z,7.20
2022-09-23T02:10:19.270Z,7.10
2022-09-23T02:12:58.016Z,7.10
2022-09-23T02:15:40.975Z,7.10
2022-09-23T02:18:19.732Z,7.10
2022-09-23T02:21:00.467Z,7.00
2022-09-23T02:24:00.038Z,7.00
2022-09-23T02:26:53.483Z,6.90
2022-09-23T02:30:02.339Z,6.90
2022-09-23T02:32:41.442Z,6.90
2022-09-23T02:35:49.046Z,6.90
2022-09-23T02:38:35.587Z,6.90
2022-09-23T02:41:20.538Z,6.90
2022-09-23T02:44:11.239Z,6.90
2022-09-23T02:46:44.652Z,6.90
2022-09-23T02:49:29.827Z,6.90
2022-09-23T02:52:04.787Z,6.90
2022-09-23T02:54:37.789Z,6.90
2022-09-23T02:57:10.737Z,6.90
2022-09-23T02:59:43.673Z,6.80
2022-09-23T03:03:05.383Z,6.80
2022-09-23T03:05:46.086Z,6.80
2022-09-23T03:08:32.446Z,6.70
2022-09-23T03:11:13.568Z,6.70
2022-09-23T03:14:30.877Z,6.70
2022-09-23T03:17:04.681Z,6.60
2022-09-23T03:19:54.046Z,6.60
2022-09-23T03:22:47.093Z,6.60
2022-09-23T03:25:24.048Z,6.60
2022-09-23T03:27:59.117Z,6.60
2022-09-23T03:30:35.655Z,6.60
2022-09-23T03:33:12.531Z,6.50
2022-09-23T03:36:19.259Z,6.50
2022-09-23T03:38:57.845Z,6.50
2022-09-23T03:41:43.387Z,6.50
2022-09-23T03:44:17.599Z,6.40
2022-09-23T03:46:50.337Z,6.30
2022-09-23T03:49:33.466Z,6.20
2022-09-23T03:52:06.881Z,6.10
2022-09-23T03:54:39.482Z,6.10
2022-09-23T03:57:13.403Z,6.10
2022-09-23T03:59:45.989Z,6.10
2022-09-23T04:02:20.324Z,6.00
2022-09-23T04:04:52.893Z,5.90
2022-09-23T04:07:25.713Z,5.90
2022-09-23T04:09:59.938Z,5.90
2022-09-23T04:12:32.834Z,6.00
2022-09-23T04:15:05.927Z,6.00
2022-09-23T04:17:38.736Z,6.10
2022-09-23T04:20:11.288Z,6.10
2022-09-23T04:22:44.017Z,6.00
2022-09-23T04:25:16.658Z,5.80
2022-09-23T04:27:49.401Z,5.80
2022-09-23T04:30:21.929Z,5.80
2022-09-23T04:32:54.880Z,5.80
2022-09-23T04:35:27.458Z,5.80
2022-09-23T04:38:00.225Z,5.80
2022-09-23T04:40:33.157Z,5.80
2022-09-23T04:43:07.182Z,5.80
2022-09-23T04:45:43.298Z,5.80
2022-09-23T04:48:16.234Z,5.80
2022-09-23T04:50:48.953Z,5.90
2022-09-23T04:53:21.889Z,5.90
2022-09-23T04:55:55.197Z,5.90
2022-09-23T04:58:29.170Z,5.90
2022-09-23T05:01:10.364Z,5.90
2022-09-23T05:03:44.703Z,5.90
2022-09-23T05:06:17.785Z,5.80
2022-09-23T05:08:52.952Z,5.80
2022-09-23T05:11:26.773Z,5.90
2022-09-23T05:13:59.857Z,5.90
2022-09-23T05:16:32.497Z,6.00
2022-09-23T05:19:05.691Z,6.20
2022-09-23T05:21:38.603Z,6.20
2022-09-23T05:24:12.327Z,6.30
2022-09-23T05:26:44.878Z,6.30
2022-09-23T05:29:18.145Z,6.40
2022-09-23T05:31:50.917Z,6.40
2022-09-23T05:34:24.768Z,6.50
2022-09-23T05:36:58.422Z,6.50
2022-09-23T05:39:31.241Z,6.60
2022-09-23T05:42:04.111Z,6.60
2022-09-23T05:44:39.577Z,6.70
2022-09-23T05:47:12.096Z,6.70
2022-09-23T05:49:59.214Z,6.70
2022-09-23T05:52:34.876Z,6.80
2022-09-23T05:55:08.507Z,6.90
2022-09-23T05:57:41.088Z,6.90
2022-09-23T06:00:14.480Z,7.00
2022-09-23T06:02:48.879Z,7.00
2022-09-23T06:05:21.796Z,7.10
2022-09-23T06:07:56.874Z,7.30
2022-09-23T06:10:29.651Z,7.40
2022-09-23T06:13:02.127Z,7.60
2022-09-23T06:15:41.684Z,7.70
2022-09-23T06:18:14.290Z,7.80
2022-09-23T06:20:48.095Z,7.90
2022-09-23T06:23:24.087Z,8.00
2022-09-23T06:26:08.136Z,8.10
2022-09-23T06:28:42.980Z,8.20
2022-09-23T06:31:17.280Z,8.30
2022-09-23T06:33:52.505Z,8.40
2022-09-23T06:36:44.911Z,8.50
2022-09-23T06:39:18.287Z,8.60
2022-09-23T06:41:51.039Z,8.70
2022-09-23T06:44:23.772Z,8.80
2022-09-23T06:46:56.659Z,8.80
2022-09-23T06:49:29.243Z,8.90
2022-09-23T06:52:02.323Z,9.00
2022-09-23T06:54:34.878Z,9.10
2022-09-23T06:57:07.591Z,9.10
2022-09-23T06:59:41.842Z,9.20
2022-09-23T07:02:14.647Z,9.30
2022-09-23T07:04:47.319Z,9.40
2022-09-23T07:07:20.106Z,9.40
2022-09-23T07:09:53.682Z,9.50
2022-09-23T07:12:26.656Z,9.60
2022-09-23T07:14:59.161Z,9.70
2022-09-23T07:17:32.007Z,9.80
2022-09-23T07:20:04.971Z,9.90
2022-09-23T07:22:38.300Z,10.10
2022-09-23T07:25:12.268Z,10.20
2022-09-23T07:27:47.413Z,10.30
2022-09-23T07:30:25.149Z,10.40
2022-09-23T07:32:58.357Z,10.50
2022-09-23T07:35:31.250Z,10.60
2022-09-23T07:38:04.010Z,10.70
2022-09-23T07:40:39.219Z,10.70
2022-09-23T07:43:11.943Z,10.80
2022-09-23T07:45:45.513Z,11.00
2022-09-23T07:48:18.276Z,11.00
2022-09-23T07:50:50.836Z,11.10
2022-09-23T07:53:24.140Z,11.20
2022-09-23T07:55:57.124Z,11.30
2022-09-23T07:58:30.034Z,11.40
2022-09-23T08:01:05.220Z,11.50
2022-09-23T08:03:39.281Z,11.60
2022-09-23T08:06:13.514Z,11.60
2022-09-23T08:08:51.151Z,11.70
2022-09-23T08:11:26.708Z,11.80
2022-09-23T08:13:59.562Z,11.80
2022-09-23T08:16:32.956Z,12.00
2022-09-23T08:19:06.522Z,12.00
2022-09-23T08:21:40.488Z,12.10
2022-09-23T08:24:18.938Z,12.20
2022-09-23T08:26:55.647Z,12.20
2022-09-23T08:29:28.483Z,12.30
2022-09-23T08:32:01.223Z,12.40
2022-09-23T08:34:35.835Z,12.50
2022-09-23T08:37:11.432Z,12.60
2022-09-23T08:39:44.706Z,12.70
2022-09-23T08:42:28.282Z,12.80
2022-09-23T08:45:04.807Z,12.80
2022-09-23T08:48:24.602Z,12.80
2022-09-23T08:51:05.383Z,12.80
2022-09-23T08:53:38.810Z,12.90
2022-09-23T08:56:17.414Z,13.10
2022-09-23T08:59:00.401Z,13.10
2022-09-23T09:01:44.544Z,13.10
2022-09-23T09:04:19.210Z,13.20
2022-09-23T09:07:35.261Z,13.30
2022-09-23T09:10:08.494Z,13.50
2022-09-23T09:12:47.953Z,13.80
2022-09-23T09:15:27.389Z,13.90
2022-09-23T09:18:04.430Z,14.00
2022-09-23T09:20:51.623Z,14.20
2022-09-23T09:23:45.323Z,14.20
2022-09-23T09:26:32.370Z,14.20
2022-09-23T09:29:36.410Z,14.20
2022-09-23T09:32:37.834Z,14.10
2022-09-23T09:35:33.238Z,14.10
2022-09-23T09:38:05.924Z,14.30
2022-09-23T09:40:46.252Z,14.50
2022-09-23T09:43:25.887Z,14.70
2022-09-23T09:46:25.985Z,14.70
2022-09-23T09:49:11.510Z,14.80
2022-09-23T09:51:44.300Z,14.80
2022-09-23T09:54:23.231Z,14.80
2022-09-23T09:56:56.072Z,14.80
2022-09-23T09:59:29.401Z,15.10
2022-09-23T10:02:25.951Z,15.40
2022-09-23T10:05:05.877Z,15.70
2022-09-23T10:07:38.518Z,15.90
2022-09-23T10:10:33.646Z,16.10
2022-09-23T10:13:16.234Z,16.30
2022-09-23T10:15:48.795Z,16.40
2022-09-23T10:18:38.167Z,16.20
2022-09-23T10:21:26.941Z,16.20
2022-09-23T10:24:03.112Z,16.00
2022-09-23T10:26:55.050Z,15.70
2022-09-23T10:29:37.494Z,15.50
2022-09-23T10:32:28.074Z,15.40
2022-09-23T10:35:15.675Z,15.50
2022-09-23T10:37:57.979Z,15.60
2022-09-23T10:41:01.888Z,15.70
2022-09-23T10:44:11.119Z,15.70
2022-09-23T10:46:50.647Z,15.80
2022-09-23T10:49:43.954Z,15.90
2022-09-23T10:52:36.370Z,15.90
2022-09-23T10:55:09.062Z,16.00
2022-09-23T10:57:53.900Z,16.10
2022-09-23T11:00:57.367Z,16.20
2022-09-23T11:04:12.485Z,16.40
2022-09-23T11:07:14.615Z,16.70
2022-09-23T11:10:28.867Z,16.90
2022-09-23T11:13:29.676Z,17.20
2022-09-23T11:16:21.563Z,17.30
2022-09-23T11:19:23.271Z,17.30
2022-09-23T11:22:38.048Z,17.50
2022-09-23T11:25:31.936Z,17.80
2022-09-23T11:28:17.888Z,17.80
2022-09-23T11:31:12.609Z,17.60
2022-09-23T11:33:53.756Z,17.50
2022-09-23T11:36:37.914Z,17.60
2022-09-23T11:39:28.074Z,17.70
2022-09-23T11:42:02.474Z,17.80
2022-09-23T11:44:44.555Z,17.80
2022-09-23T11:47:33.521Z,17.70
2022-09-23T11:50:29.672Z,17.50
2022-09-23T11:53:09.715Z,17.00
2022-09-23T11:55:58.023Z,16.80
2022-09-23T11:58:50.017Z,16.60
2022-09-23T12:01:56.015Z,16.30
2022-09-23T12:04:29.176Z,16.20
2022-09-23T12:07:56.757Z,16.10
2022-09-23T12:10:50.418Z,15.80
2022-09-23T12:13:49.646Z,15.80
2022-09-23T12:16:53.796Z,15.80
2022-09-23T12:27:39.567Z,16.50
2022-09-23T12:33:52.240Z,16.90
2022-09-23T12:36:34.826Z,17.10
2022-09-23T12:39:29.666Z,17.20
2022-09-23T12:42:05.314Z,17.20
2022-09-23T12:44:41.450Z,17.30
2022-09-23T12:47:25.576Z,17.50
2022-09-23T12:49:58.351Z,17.70
2022-09-23T12:52:33.750Z,17.70
2022-09-23T12:55:22.136Z,17.90
2022-09-23T12:57:55.590Z,17.70
2022-09-23T13:00:32.150Z,17.60
2022-09-23T13:03:31.404Z,17.40
2022-09-23T13:06:27.079Z,17.20
2022-09-23T13:09:00.971Z,17.10
2022-09-23T13:11:33.720Z,17.10
2022-09-23T13:14:07.283Z,17.00
2022-09-23T13:16:44.465Z,17.00
2022-09-23T13:19:26.706Z,16.90
2022-09-23T13:22:06.841Z,16.80
2022-09-23T13:24:43.074Z,16.80
2022-09-23T13:27:30.314Z,16.60
2022-09-23T13:30:32.553Z,16.50
2022-09-23T13:37:04.803Z,16.60
2022-09-23T13:40:27.260Z,16.50
2022-09-23T13:43:04.591Z,16.60
2022-09-23T13:45:44.903Z,16.60
2022-09-23T13:51:43.104Z,16.80
2022-09-23T13:54:50.443Z,17.00
2022-09-23T13:57:34.878Z,17.10
2022-09-23T14:00:21.589Z,17.10
2022-09-23T14:02:55.920Z,17.10
2022-09-23T14:05:35.448Z,17.10
2022-09-23T14:08:09.611Z,17.10
2022-09-23T14:12:32.694Z,17.00
2022-09-23T14:15:07.176Z,16.80
2022-09-23T14:17:39.883Z,16.70
2022-09-23T14:20:17.678Z,16.70
2022-09-23T14:23:05.061Z,16.70
2022-09-23T14:25:39.051Z,16.70
2022-09-23T14:28:19.932Z,16.70
2022-09-23T14:31:00.365Z,16.70
2022-09-23T14:33:34.200Z,16.60
2022-09-23T14:36:34.158Z,16.60
2022-09-23T14:39:10.153Z,16.60
2022-09-23T14:41:45.590Z,16.70
2022-09-23T14:44:30.824Z,16.80
2022-09-23T14:47:03.618Z,16.80
2022-09-23T14:49:36.227Z,16.80
2022-09-23T14:52:10.793Z,16.80
2022-09-23T14:54:46.901Z,16.70
2022-09-23T14:57:22.837Z,16.60
2022-09-23T15:00:16.056Z,16.60
2022-09-23T15:03:13.261Z,16.50
2022-09-23T15:05:57.954Z,16.40
2022-09-23T15:08:33.123Z,16.30
2022-09-23T15:11:08.298Z,16.30
2022-09-23T15:13:45.638Z,16.30
2022-09-23T15:16:27.855Z,16.20
2022-09-23T15:19:04.123Z,16.20
2022-09-23T15:21:42.242Z,16.20
2022-09-23T15:24:36.832Z,16.40
2022-09-23T15:27:28.742Z,16.80
2022-09-23T15:30:19.257Z,17.20
2022-09-23T15:32:51.907Z,17.50
2022-09-23T15:35:26.788Z,17.70
2022-09-23T15:38:01.838Z,17.60
2022-09-23T15:40:37.087Z,17.50
2022-09-23T15:43:21.986Z,17.30
2022-09-23T15:46:07.368Z,17.10
2022-09-23T15:49:02.930Z,16.80
2022-09-23T15:51:37.365Z,16.60
2022-09-23T15:54:12.591Z,16.30
2022-09-23T15:56:45.793Z,16.00
2022-09-23T15:59:19.279Z,15.70
2022-09-23T16:01:53.275Z,15.50
2022-09-23T16:04:26.239Z,15.30
2022-09-23T16:06:59.168Z,15.10
2022-09-23T16:09:31.754Z,14.80
2022-09-23T16:12:04.777Z,14.60
2022-09-23T16:14:37.480Z,14.40
2022-09-23T16:17:13.997Z,14.10
2022-09-23T16:19:46.528Z,13.90
2022-09-23T16:22:19.312Z,13.70
2022-09-23T16:24:51.836Z,13.60
2022-09-23T16:27:26.064Z,13.40
2022-09-23T16:29:59.042Z,13.30
2022-09-23T16:32:31.794Z,13.30
2022-09-23T16:35:06.041Z,13.10
2022-09-23T16:37:38.834Z,13.00
2022-09-23T16:40:11.532Z,12.80
2022-09-23T16:42:46.519Z,12.80
2022-09-23T16:45:23.003Z,12.70
2022-09-23T16:48:03.958Z,12.60
2022-09-23T16:50:36.563Z,12.50
2022-09-23T16:53:09.318Z,12.40
2022-09-23T16:55:41.842Z,12.20
2022-09-23T16:58:14.987Z,11.90
2022-09-23T17:01:06.244Z,11.60
2022-09-23T17:03:41.922Z,11.50
2022-09-23T17:06:15.842Z,11.30
2022-09-23T17:08:49.201Z,11.20
2022-09-23T17:11:22.787Z,11.20
2022-09-23T17:13:55.765Z,11.20
2022-09-23T17:16:31.088Z,11.20
2022-09-23T17:19:08.558Z,11.10
2022-09-23T17:21:41.127Z,11.00
2022-09-23T17:24:13.860Z,10.90
2022-09-23T17:26:52.037Z,10.90
2022-09-23T17:29:26.950Z,10.90
2022-09-23T17:31:59.570Z,10.90
2022-09-23T17:34:33.460Z,10.90
2022-09-23T17:37:06.096Z,10.90
2022-09-23T17:39:38.888Z,10.90
2022-09-23T17:42:11.450Z,10.80
2022-09-23T17:44:44.245Z,10.70
2022-09-23T17:47:16.956Z,10.60
2022-09-23T17:49:50.027Z,10.40
2022-09-23T17:52:22.509Z,10.30
2022-09-23T17:54:55.234Z,10.30
2022-09-23T17:57:31.880Z,10.40
2022-09-23T18:00:05.055Z,10.40
2022-09-23T18:02:37.698Z,10.40
2022-09-23T18:05:10.514Z,10.40
2022-09-23T18:07:42.967Z,10.50
2022-09-23T18:10:15.764Z,10.50
2022-09-23T18:12:48.560Z,10.50
2022-09-23T18:15:21.269Z,10.50
2022-09-23T18:17:53.792Z,10.40
2022-09-23T18:20:26.508Z,10.30
2022-09-23T18:22:59.479Z,10.10
2022-09-23T18:25:40.917Z,10.10
2022-09-23T18:28:13.442Z,10.00
2022-09-23T18:30:56.402Z,10.00
2022-09-23T18:33:28.898Z,10.00
2022-09-23T18:36:02.109Z,10.00
2022-09-23T18:38:34.933Z,9.90
2022-09-23T18:41:08.137Z,9.80
2022-09-23T18:43:46.303Z,9.80
2022-09-23T18:46:25.939Z,9.60
2022-09-23T18:49:17.752Z,9.50
2022-09-23T18:51:55.707Z,9.40
2022-09-23T18:54:30.485Z,9.30
2022-09-23T18:57:03.266Z,9.30
2022-09-23T18:59:35.771Z,9.30
2022-09-23T19:02:09.265Z,9.30
2022-09-23T19:04:41.934Z,9.30
2022-09-23T19:07:16.022Z,9.30
2022-09-23T19:09:48.722Z,9.20
2022-09-23T19:12:22.642Z,9.00
2022-09-23T19:14:55.708Z,9.00
2022-09-23T19:17:29.411Z,8.90
2022-09-23T19:20:34.705Z,8.80
2022-09-23T19:23:11.431Z,8.80
2022-09-23T19:25:46.443Z,8.70
2022-09-23T19:28:19.335Z,8.60
2022-09-23T19:30:52.226Z,8.60
2022-09-23T19:33:24.947Z,8.60
2022-09-23T19:35:58.469Z,8.50
2022-09-23T19:38:31.193Z,8.50
2022-09-23T19:41:09.215Z,8.50
2022-09-23T19:43:41.969Z,8.50
2022-09-23T19:46:14.825Z,8.40
2022-09-23T19:48:48.561Z,8.30
2022-09-23T19:51:21.183Z,8.20
2022-09-23T19:53:54.011Z,8.20
2022-09-23T19:56:26.937Z,8.10
2022-09-23T19:59:02.949Z,8.00
2022-09-23T20:01:36.380Z,8.00
2022-09-23T20:04:09.365Z,8.00
2022-09-23T20:06:42.038Z,7.90
2022-09-23T20:09:17.013Z,7.90
2022-09-23T20:11:50.200Z,7.90
2022-09-23T20:14:24.415Z,7.90
2022-09-23T20:16:57.992Z,7.90
2022-09-23T20:19:30.987Z,7.80
2022-09-23T20:22:22.305Z,7.80
2022-09-23T20:24:56.342Z,7.80
2022-09-23T20:27:33.452Z,7.70
2022-09-23T20:30:10.102Z,7.70
2022-09-23T20:32:44.734Z,7.70
2022-09-23T20:35:17.730Z,7.70
2022-09-23T20:37:50.950Z,7.60
2022-09-23T20:40:23.704Z,7.60
2022-09-23T20:42:56.486Z,7.60
2022-09-23T20:45:29.247Z,7.50
2022-09-23T20:48:03.374Z,7.50
2022-09-23T20:50:36.169Z,7.50
2022-09-23T20:53:09.144Z,7.50
2022-09-23T20:55:53.238Z,7.50
2022-09-23T20:58:27.867Z,7.50
2022-09-23T21:01:05.420Z,7.40
2022-09-23T21:03:40.509Z,7.40
2022-09-23T21:06:15.327Z,7.40
2022-09-23T21:08:47.971Z,7.40
2022-09-23T21:11:21.978Z,7.40
2022-09-23T21:13:54.751Z,7.40
2022-09-23T21:16:27.716Z,7.40
2022-09-23T21:19:03.323Z,7.40
2022-09-23T21:21:37.093Z,7.40
2022-09-23T21:24:43.791Z,7.50
2022-09-23T21:27:03.975Z,7.60
2022-09-23T21:29:36.501Z,7.80
2022-09-23T21:32:10.414Z,8.00
2022-09-23T21:34:42.981Z,8.10
2022-09-23T21:37:15.650Z,8.10
2022-09-23T21:40:08.252Z,8.20
2022-09-23T21:42:42.093Z,8.10
2022-09-23T21:45:14.639Z,8.10
2022-09-23T21:47:47.378Z,8.20
2022-09-23T21:50:20.529Z,8.10
2022-09-23T21:52:53.546Z,8.20
2022-09-23T21:55:26.093Z,8.10
2022-09-23T21:57:58.868Z,8.00
2022-09-23T22:00:31.491Z,7.90
2022-09-23T22:03:04.229Z,7.90
2022-09-23T22:05:43.589Z,8.00
2022-09-23T22:08:16.270Z,8.00
2022-09-23T22:10:48.790Z,7.90
2022-09-23T22:13:21.965Z,7.80
2022-09-23T22:15:54.626Z,7.80
2022-09-23T22:18:28.477Z,7.70
2022-09-23T22:21:01.039Z,7.60
2022-09-23T22:23:33.726Z,7.60
2022-09-23T22:26:06.204Z,7.60
2022-09-23T22:28:57.759Z,7.50
2022-09-23T22:31:48.975Z,7.50
2022-09-23T22:34:48.671Z,7.50
2022-09-23T22:37:26.316Z,7.50
2022-09-23T22:39:58.894Z,7.50
2022-09-23T22:42:31.614Z,7.60
2022-09-23T22:45:05.949Z,7.60
2022-09-23T22:47:40.926Z,7.70
2022-09-23T22:50:14.770Z,7.80
2022-09-23T22:52:47.577Z,7.80
2022-09-23T22:55:20.350Z,7.90
2022-09-23T22:57:52.823Z,8.00
2022-09-23T23:00:26.934Z,8.10
2022-09-23T23:03:01.102Z,8.20
2022-09-23T23:05:33.922Z,8.30
2022-09-23T23:08:06.441Z,8.40
2022-09-23T23:10:39.398Z,8.40
2022-09-23T23:13:11.921Z,8.50
2022-09-23T23:15:44.672Z,8.50
2022-09-23T23:18:17.206Z,8.60
2022-09-23T23:20:50.184Z,8.60
2022-09-23T23:23:22.759Z,8.70
2022-09-23T23:25:55.518Z,8.70
2022-09-23T23:28:28.011Z,8.70
2022-09-23T23:31:08.410Z,8.70
2022-09-23T23:33:42.193Z,8.70
2022-09-23T23:36:17.556Z,8.80
2022-09-23T23:38:54.076Z,8.80
2022-09-23T23:41:27.270Z,8.90
2022-09-23T23:44:01.245Z,8.80
2022-09-23T23:46:37.343Z,8.90
2022-09-23T23:49:10.114Z,8.80
2022-09-23T23:51:42.800Z,8.90
2022-09-23T23:54:15.476Z,8.80
2022-09-23T23:56:48.372Z,8.80
2022-09-23T23:59:21.080Z,8.80
